sensor_id;sensor_type;location;lat;lon;timestamp;pressure;altitude;pressure_sealevel;temperature;humidity
52949;BME280;38812;50.942;3.644;2023-04-24T00:01:26;100175.28;;;8.77;100.00
52949;BME280;38812;50.942;3.644;2023-04-24T00:03:52;100159.75;;;8.69;100.00
52949;BME280;38812;50.942;3.644;2023-04-24T00:06:17;100170.97;;;8.76;100.00
52949;BME280;38812;50.942;3.644;2023-04-24T00:08:43;100165.72;;;8.76;100.00
52949;BME280;38812;50.942;3.644;2023-04-24T00:11:08;100175.22;;;8.80;100.00
52949;BME280;38812;50.942;3.644;2023-04-24T00:13:34;100174.34;;;8.81;100.00
52949;BME280;38812;50.942;3.644;2023-04-24T00:16:00;100178.66;;;8.82;100.00
52949;BME280;38812;50.942;3.644;2023-04-24T00:18:26;100165.72;;;8.76;100.00
52949;BME280;38812;50.942;3.644;2023-04-24T00:20:51;100171.84;;;8.75;100.00
52949;BME280;38812;50.942;3.644;2023-04-24T00:23:16;100177.06;;;8.76;100.00
52949;BME280;38812;50.942;3.644;2023-04-24T00:25:42;100183.19;;;8.75;100.00
52949;BME280;38812;50.942;3.644;2023-04-24T00:28:07;100171.09;;;8.70;100.00
52949;BME280;38812;50.942;3.644;2023-04-24T00:30:33;100166.88;;;8.64;100.00
52949;BME280;38812;50.942;3.644;2023-04-24T00:32:58;100173.75;;;8.68;100.00
52949;BME280;38812;50.942;3.644;2023-04-24T00:35:23;100167.75;;;8.65;100.00
52949;BME280;38812;50.942;3.644;2023-04-24T00:37:49;100191.31;;;8.65;100.00
52949;BME280;38812;50.942;3.644;2023-04-24T00:40:15;100186.16;;;8.62;100.00
52949;BME280;38812;50.942;3.644;2023-04-24T00:42:41;100183.72;;;8.52;100.00
52949;BME280;38812;50.942;3.644;2023-04-24T00:45:08;100188.97;;;8.52;100.00
52949;BME280;38812;50.942;3.644;2023-04-24T00:47:34;100190.22;;;8.36;100.00
52949;BME280;38812;50.942;3.644;2023-04-24T00:50:06;100188.63;;;8.27;100.00
52949;BME280;38812;50.942;3.644;2023-04-24T00:52:32;100188.56;;;8.31;100.00
52949;BME280;38812;50.942;3.644;2023-04-24T00:54:58;100187.88;;;8.22;100.00
52949;BME280;38812;50.942;3.644;2023-04-24T00:57:23;100174.91;;;8.18;100.00
52949;BME280;38812;50.942;3.644;2023-04-24T00:59:50;100179.25;;;8.19;100.00
52949;BME280;38812;50.942;3.644;2023-04-24T01:02:15;100181.97;;;8.13;100.00
52949;BME280;38812;50.942;3.644;2023-04-24T01:04:41;100186.38;;;8.11;100.00
52949;BME280;38812;50.942;3.644;2023-04-24T01:07:08;100192.50;;;8.10;100.00
52949;BME280;38812;50.942;3.644;2023-04-24T01:09:37;100181.25;;;8.05;100.00
52949;BME280;38812;50.942;3.644;2023-04-24T01:12:03;100193.47;;;8.06;100.00
52949;BME280;38812;50.942;3.644;2023-04-24T01:14:29;100192.63;;;8.04;100.00
52949;BME280;38812;50.942;3.644;2023-04-24T01:16:55;100189.28;;;7.99;100.00
52949;BME280;38812;50.942;3.644;2023-04-24T01:19:22;100195.13;;;8.10;100.00
52949;BME280;38812;50.942;3.644;2023-04-24T01:21:50;100191.72;;;8.05;100.00
52949;BME280;38812;50.942;3.644;2023-04-24T01:24:19;100182.34;;;7.96;100.00
52949;BME280;38812;50.942;3.644;2023-04-24T01:26:45;100193.59;;;8.00;100.00
52949;BME280;38812;50.942;3.644;2023-04-24T01:29:11;100191.78;;;8.02;100.00
52949;BME280;38812;50.942;3.644;2023-04-24T01:31:38;100184.00;;;8.00;100.00
52949;BME280;38812;50.942;3.644;2023-04-24T01:34:05;100184.72;;;8.07;100.00
52949;BME280;38812;50.942;3.644;2023-04-24T01:36:31;100195.13;;;8.10;100.00
52949;BME280;38812;50.942;3.644;2023-04-24T01:38:57;100192.59;;;8.05;100.00
52949;BME280;38812;50.942;3.644;2023-04-24T01:41:23;100196.00;;;8.09;100.00
52949;BME280;38812;50.942;3.644;2023-04-24T01:43:49;100185.53;;;8.09;100.00
52949;BME280;38812;50.942;3.644;2023-04-24T01:46:15;100197.63;;;8.16;100.00
52949;BME280;38812;50.942;3.644;2023-04-24T01:48:41;100197.66;;;8.14;100.00
52949;BME280;38812;50.942;3.644;2023-04-24T01:51:06;100188.31;;;8.01;100.00
52949;BME280;38812;50.942;3.644;2023-04-24T01:53:32;100201.28;;;8.07;100.00
52949;BME280;38812;50.942;3.644;2023-04-24T01:55:57;100193.47;;;8.06;100.00
52949;BME280;38812;50.942;3.644;2023-04-24T01:58:23;100190.09;;;8.01;100.00
52949;BME280;38812;50.942;3.644;2023-04-24T02:00:48;100197.03;;;8.02;100.00
52949;BME280;38812;50.942;3.644;2023-04-24T02:03:14;100195.25;;;8.04;100.00
52949;BME280;38812;50.942;3.644;2023-04-24T02:05:39;100202.25;;;8.02;100.00
52949;BME280;38812;50.942;3.644;2023-04-24T02:08:04;100209.31;;;8.00;100.00
52949;BME280;38812;50.942;3.644;2023-04-24T02:10:30;100195.34;;;8.01;100.00
52949;BME280;38812;50.942;3.644;2023-04-24T02:12:55;100195.50;;;7.91;100.00
52949;BME280;38812;50.942;3.644;2023-04-24T02:15:21;100194.59;;;7.94;100.00
52949;BME280;38812;50.942;3.644;2023-04-24T02:17:46;100200.59;;;7.99;100.00
52949;BME280;38812;50.942;3.644;2023-04-24T02:20:11;100197.19;;;7.94;100.00
52949;BME280;38812;50.942;3.644;2023-04-24T02:22:37;100209.38;;;7.97;100.00
52949;BME280;38812;50.942;3.644;2023-04-24T02:25:03;100210.19;;;7.99;100.00
52949;BME280;38812;50.942;3.644;2023-04-24T02:27:28;100221.53;;;7.99;100.00
52949;BME280;38812;50.942;3.644;2023-04-24T02:29:54;100222.41;;;7.98;100.00
52949;BME280;38812;50.942;3.644;2023-04-24T02:32:20;100212.81;;;7.99;100.00
52949;BME280;38812;50.942;3.644;2023-04-24T02:34:45;100218.09;;;7.96;100.00
52949;BME280;38812;50.942;3.644;2023-04-24T02:37:11;100224.78;;;8.09;100.00
52949;BME280;38812;50.942;3.644;2023-04-24T02:39:36;100226.63;;;8.04;100.00
52949;BME280;38812;50.942;3.644;2023-04-24T02:42:01;100223.19;;;8.02;100.00
52949;BME280;38812;50.942;3.644;2023-04-24T02:44:27;100228.41;;;8.02;100.00
52949;BME280;38812;50.942;3.644;2023-04-24T02:46:52;100236.06;;;8.12;100.00
52949;BME280;38812;50.942;3.644;2023-04-24T02:49:18;100248.38;;;8.06;100.00
52949;BME280;38812;50.942;3.644;2023-04-24T02:51:43;100248.28;;;8.12;100.00
52949;BME280;38812;50.942;3.644;2023-04-24T02:54:08;100255.22;;;8.13;100.00
52949;BME280;38812;50.942;3.644;2023-04-24T02:56:35;100256.13;;;8.12;100.00
52949;BME280;38812;50.942;3.644;2023-04-24T02:59:00;100260.47;;;8.13;100.00
52949;BME280;38812;50.942;3.644;2023-04-24T03:01:26;100259.56;;;8.14;100.00
52949;BME280;38812;50.942;3.644;2023-04-24T03:03:51;100261.34;;;8.12;100.00
52949;BME280;38812;50.942;3.644;2023-04-24T03:06:16;100267.44;;;8.12;100.00
52949;BME280;38812;50.942;3.644;2023-04-24T03:08:42;100273.50;;;8.16;100.00
52949;BME280;38812;50.942;3.644;2023-04-24T03:11:07;100263.22;;;8.05;100.00
52949;BME280;38812;50.942;3.644;2023-04-24T03:13:32;100267.47;;;8.11;100.00
52949;BME280;38812;50.942;3.644;2023-04-24T03:15:58;100278.81;;;8.11;100.00
52949;BME280;38812;50.942;3.644;2023-04-24T03:18:23;100289.25;;;8.13;100.00
52949;BME280;38812;50.942;3.644;2023-04-24T03:20:49;100286.59;;;8.14;100.00
52949;BME280;38812;50.942;3.644;2023-04-24T03:23:15;100285.69;;;8.17;100.00
52949;BME280;38812;50.942;3.644;2023-04-24T03:25:40;100289.34;;;8.07;100.00
52949;BME280;38812;50.942;3.644;2023-04-24T03:28:07;100300.56;;;8.13;100.00
52949;BME280;38812;50.942;3.644;2023-04-24T03:30:33;100304.00;;;8.17;100.00
52949;BME280;38812;50.942;3.644;2023-04-24T03:32:58;100311.97;;;8.11;100.00
52949;BME280;38812;50.942;3.644;2023-04-24T03:35:24;100312.91;;;8.07;100.00
52949;BME280;38812;50.942;3.644;2023-04-24T03:37:49;100317.28;;;8.05;100.00
52949;BME280;38812;50.942;3.644;2023-04-24T03:40:14;100328.69;;;8.02;100.00
52949;BME280;38812;50.942;3.644;2023-04-24T03:42:40;100329.63;;;8.00;100.00
52949;BME280;38812;50.942;3.644;2023-04-24T03:45:06;100335.53;;;8.09;100.00
52949;BME280;38812;50.942;3.644;2023-04-24T03:47:31;100339.19;;;8.01;100.00
52949;BME280;38812;50.942;3.644;2023-04-24T03:49:57;100338.22;;;8.05;100.00
52949;BME280;38812;50.942;3.644;2023-04-24T03:52:22;100343.56;;;8.00;100.00
52949;BME280;38812;50.942;3.644;2023-04-24T03:54:48;100348.03;;;7.94;100.00
52949;BME280;38812;50.942;3.644;2023-04-24T03:57:13;100355.94;;;7.90;100.00
52949;BME280;38812;50.942;3.644;2023-04-24T03:59:38;100353.22;;;7.97;100.00
52949;BME280;38812;50.942;3.644;2023-04-24T04:02:04;100343.84;;;7.83;100.00
52949;BME280;38812;50.942;3.644;2023-04-24T04:04:29;100356.91;;;7.85;100.00
52949;BME280;38812;50.942;3.644;2023-04-24T04:06:55;100362.19;;;7.82;100.00
52949;BME280;38812;50.942;3.644;2023-04-24T04:09:20;100359.47;;;7.88;100.00
52949;BME280;38812;50.942;3.644;2023-04-24T04:11:46;100361.34;;;7.80;100.00
52949;BME280;38812;50.942;3.644;2023-04-24T04:14:11;100378.69;;;7.85;100.00
52949;BME280;38812;50.942;3.644;2023-04-24T04:16:36;100380.38;;;7.89;100.00
52949;BME280;38812;50.942;3.644;2023-04-24T04:19:02;100381.16;;;7.95;100.00
52949;BME280;38812;50.942;3.644;2023-04-24T04:21:28;100391.75;;;7.87;100.00
52949;BME280;38812;50.942;3.644;2023-04-24T04:23:53;100397.00;;;7.85;100.00
52949;BME280;38812;50.942;3.644;2023-04-24T04:26:19;100398.69;;;7.88;100.00
52949;BME280;38812;50.942;3.644;2023-04-24T04:28:46;100405.72;;;7.84;100.00
52949;BME280;38812;50.942;3.644;2023-04-24T04:31:12;100402.38;;;7.78;100.00
52949;BME280;38812;50.942;3.644;2023-04-24T04:33:38;100398.06;;;7.75;100.00
52949;BME280;38812;50.942;3.644;2023-04-24T04:36:04;100403.38;;;7.69;100.00
52949;BME280;38812;50.942;3.644;2023-04-24T04:38:30;100420.75;;;7.73;100.00
52949;BME280;38812;50.942;3.644;2023-04-24T04:40:56;100429.44;;;7.75;100.00
52949;BME280;38812;50.942;3.644;2023-04-24T04:43:24;100431.16;;;7.76;100.00
52949;BME280;38812;50.942;3.644;2023-04-24T04:45:50;100434.66;;;7.75;100.00
52949;BME280;38812;50.942;3.644;2023-04-24T04:48:16;100419.84;;;7.74;100.00
52949;BME280;38812;50.942;3.644;2023-04-24T04:50:42;100442.56;;;7.71;100.00
52949;BME280;38812;50.942;3.644;2023-04-24T04:53:08;100454.75;;;7.73;100.00
52949;BME280;38812;50.942;3.644;2023-04-24T04:55:33;100449.59;;;7.67;100.00
52949;BME280;38812;50.942;3.644;2023-04-24T04:57:59;100460.69;;;7.81;100.00
52949;BME280;38812;50.942;3.644;2023-04-24T05:00:25;100451.31;;;7.70;100.00
52949;BME280;38812;50.942;3.644;2023-04-24T05:02:51;100461.78;;;7.68;100.00
52949;BME280;38812;50.942;3.644;2023-04-24T05:05:17;100460.91;;;7.68;100.00
52949;BME280;38812;50.942;3.644;2023-04-24T05:07:43;100477.50;;;7.65;100.00
52949;BME280;38812;50.942;3.644;2023-04-24T05:10:09;100478.41;;;7.63;100.00
52949;BME280;38812;50.942;3.644;2023-04-24T05:12:34;100484.50;;;7.63;100.00
52949;BME280;38812;50.942;3.644;2023-04-24T05:15:00;100486.19;;;7.69;100.00
52949;BME280;38812;50.942;3.644;2023-04-24T05:17:25;100496.63;;;7.70;100.00
52949;BME280;38812;50.942;3.644;2023-04-24T05:19:51;100501.88;;;7.69;100.00
52949;BME280;38812;50.942;3.644;2023-04-24T05:22:16;100489.75;;;7.63;100.00
52949;BME280;38812;50.942;3.644;2023-04-24T05:24:43;100500.13;;;7.68;100.00
52949;BME280;38812;50.942;3.644;2023-04-24T05:27:09;100520.09;;;7.73;100.00
52949;BME280;38812;50.942;3.644;2023-04-24T05:29:34;100523.56;;;7.77;100.00
52949;BME280;38812;50.942;3.644;2023-04-24T05:32:00;100521.91;;;7.68;100.00
52949;BME280;38812;50.942;3.644;2023-04-24T05:34:26;100535.66;;;7.82;100.00
52949;BME280;38812;50.942;3.644;2023-04-24T05:36:51;100538.22;;;7.85;100.00
52949;BME280;38812;50.942;3.644;2023-04-24T05:39:17;100535.59;;;7.85;100.00
52949;BME280;38812;50.942;3.644;2023-04-24T05:41:43;100547.75;;;7.89;100.00
52949;BME280;38812;50.942;3.644;2023-04-24T05:44:08;100542.53;;;7.89;100.00
52949;BME280;38812;50.942;3.644;2023-04-24T05:46:34;100548.59;;;7.93;100.00
52949;BME280;38812;50.942;3.644;2023-04-24T05:49:00;100546.94;;;7.86;100.00
52949;BME280;38812;50.942;3.644;2023-04-24T05:51:25;100557.25;;;7.97;100.00
52949;BME280;38812;50.942;3.644;2023-04-24T05:53:51;100556.38;;;7.98;100.00
52949;BME280;38812;50.942;3.644;2023-04-24T05:56:17;100564.16;;;8.01;100.00
52949;BME280;38812;50.942;3.644;2023-04-24T05:58:43;100550.22;;;8.00;100.00
52949;BME280;38812;50.942;3.644;2023-04-24T06:01:08;100570.13;;;8.09;100.00
52949;BME280;38812;50.942;3.644;2023-04-24T06:03:33;100568.31;;;8.14;100.00
52949;BME280;38812;50.942;3.644;2023-04-24T06:05:59;100599.69;;;8.17;100.00
52949;BME280;38812;50.942;3.644;2023-04-24T06:08:24;100587.47;;;8.17;100.00
52949;BME280;38812;50.942;3.644;2023-04-24T06:10:50;100599.69;;;8.17;100.00
52949;BME280;38812;50.942;3.644;2023-04-24T06:13:15;100595.31;;;8.17;100.00
52949;BME280;38812;50.942;3.644;2023-04-24T06:15:41;100597.75;;;8.28;100.00
52949;BME280;38812;50.942;3.644;2023-04-24T06:18:07;100598.56;;;8.32;100.00
52949;BME280;38812;50.942;3.644;2023-04-24T06:20:32;100611.56;;;8.41;100.00
52949;BME280;38812;50.942;3.644;2023-04-24T06:22:58;100613.16;;;8.48;100.00
52949;BME280;38812;50.942;3.644;2023-04-24T06:25:26;100607.84;;;8.52;100.00
52949;BME280;38812;50.942;3.644;2023-04-24T06:27:52;100618.16;;;8.65;100.00
52949;BME280;38812;50.942;3.644;2023-04-24T06:30:17;100617.31;;;8.63;100.00
52949;BME280;38812;50.942;3.644;2023-04-24T06:32:43;100625.81;;;8.75;100.00
52949;BME280;38812;50.942;3.644;2023-04-24T06:35:08;100630.88;;;8.86;100.00
52949;BME280;38812;50.942;3.644;2023-04-24T06:37:35;100631.75;;;8.85;100.00
52949;BME280;38812;50.942;3.644;2023-04-24T06:40:00;100642.94;;;8.94;100.00
52949;BME280;38812;50.942;3.644;2023-04-24T06:42:26;100646.31;;;9.01;100.00
52949;BME280;38812;50.942;3.644;2023-04-24T06:44:51;100645.19;;;9.14;100.00
52949;BME280;38812;50.942;3.644;2023-04-24T06:47:16;100649.31;;;9.29;100.00
52949;BME280;38812;50.942;3.644;2023-04-24T06:49:42;100649.81;;;9.48;100.00
52949;BME280;38812;50.942;3.644;2023-04-24T06:52:07;100660.03;;;9.15;100.00
52949;BME280;38812;50.942;3.644;2023-04-24T06:54:33;100661.34;;;8.90;100.00
52949;BME280;38812;50.942;3.644;2023-04-24T06:56:59;100670.47;;;8.66;100.00
52949;BME280;38812;50.942;3.644;2023-04-24T06:59:26;100664.56;;;8.55;100.00
52949;BME280;38812;50.942;3.644;2023-04-24T07:01:52;100667.38;;;8.43;100.00
52949;BME280;38812;50.942;3.644;2023-04-24T07:04:17;100684.72;;;8.48;100.00
52949;BME280;38812;50.942;3.644;2023-04-24T07:06:44;100677.63;;;8.56;100.00
52949;BME280;38812;50.942;3.644;2023-04-24T07:09:11;100700.09;;;8.70;100.00
52949;BME280;38812;50.942;3.644;2023-04-24T07:11:36;100686.09;;;8.72;100.00
52949;BME280;38812;50.942;3.644;2023-04-24T07:14:03;100683.38;;;8.78;100.00
52949;BME280;38812;50.942;3.644;2023-04-24T07:16:29;100703.34;;;8.87;100.00
52949;BME280;38812;50.942;3.644;2023-04-24T07:18:55;100702.53;;;8.82;100.00
52949;BME280;38812;50.942;3.644;2023-04-24T07:21:20;100698.16;;;8.82;100.00
52949;BME280;38812;50.942;3.644;2023-04-24T07:23:45;100708.63;;;8.84;100.00
52949;BME280;38812;50.942;3.644;2023-04-24T07:26:11;100713.81;;;8.87;100.00
52949;BME280;38812;50.942;3.644;2023-04-24T07:28:36;100717.06;;;9.01;100.00
52949;BME280;38812;50.942;3.644;2023-04-24T07:31:02;100717.00;;;9.06;100.00
52949;BME280;38812;50.942;3.644;2023-04-24T07:33:27;100717.69;;;9.15;100.00
52949;BME280;38812;50.942;3.644;2023-04-24T07:35:53;100715.28;;;9.03;100.00
52949;BME280;38812;50.942;3.644;2023-04-24T07:38:18;100727.44;;;9.07;100.00
52949;BME280;38812;50.942;3.644;2023-04-24T07:40:47;100724.06;;;9.01;100.00
52949;BME280;38812;50.942;3.644;2023-04-24T07:43:13;100724.44;;;9.75;100.00
52949;BME280;38812;50.942;3.644;2023-04-24T07:45:38;100730.19;;;10.38;100.00
52949;BME280;38812;50.942;3.644;2023-04-24T07:48:05;100724.53;;;10.92;100.00
52949;BME280;38812;50.942;3.644;2023-04-24T07:50:31;100736.91;;;11.22;100.00
52949;BME280;38812;50.942;3.644;2023-04-24T07:52:56;100728.16;;;11.54;100.00
52949;BME280;38812;50.942;3.644;2023-04-24T07:55:21;100724.50;;;11.27;100.00
52949;BME280;38812;50.942;3.644;2023-04-24T07:57:47;100719.72;;;11.09;100.00
52949;BME280;38812;50.942;3.644;2023-04-24T08:00:12;100733.97;;;11.67;100.00
52949;BME280;38812;50.942;3.644;2023-04-24T08:02:38;100739.63;;;11.52;100.00
52949;BME280;38812;50.942;3.644;2023-04-24T08:05:04;100734.44;;;11.49;100.00
52949;BME280;38812;50.942;3.644;2023-04-24T08:07:29;100740.66;;;11.80;100.00
52949;BME280;38812;50.942;3.644;2023-04-24T08:09:55;100744.59;;;11.64;100.00
52949;BME280;38812;50.942;3.644;2023-04-24T08:12:20;100733.69;;;11.11;100.00
52949;BME280;38812;50.942;3.644;2023-04-24T08:14:45;100745.22;;;10.69;100.00
52949;BME280;38812;50.942;3.644;2023-04-24T08:17:11;100758.06;;;10.42;100.00
52949;BME280;38812;50.942;3.644;2023-04-24T08:19:36;100769.88;;;10.23;100.00
52949;BME280;38812;50.942;3.644;2023-04-24T08:22:02;100780.63;;;10.09;100.00
52949;BME280;38812;50.942;3.644;2023-04-24T08:24:29;100787.09;;;9.91;100.00
52949;BME280;38812;50.942;3.644;2023-04-24T08:26:55;100796.91;;;9.82;100.00
52949;BME280;38812;50.942;3.644;2023-04-24T08:29:21;100806.56;;;10.26;100.00
52949;BME280;38812;50.942;3.644;2023-04-24T08:31:47;100795.81;;;11.85;100.00
52949;BME280;38812;50.942;3.644;2023-04-24T08:34:12;100800.78;;;12.56;100.00
52949;BME280;38812;50.942;3.644;2023-04-24T08:36:38;100793.22;;;13.01;100.00
52949;BME280;38812;50.942;3.644;2023-04-24T08:39:05;100793.41;;;12.08;100.00
52949;BME280;38812;50.942;3.644;2023-04-24T08:41:31;100805.63;;;11.78;100.00
52949;BME280;38812;50.942;3.644;2023-04-24T08:43:57;100804.25;;;11.28;100.00
52949;BME280;38812;50.942;3.644;2023-04-24T08:46:24;100810.69;;;11.16;100.00
52949;BME280;38812;50.942;3.644;2023-04-24T08:48:50;100809.47;;;10.94;100.00
52949;BME280;38812;50.942;3.644;2023-04-24T08:51:16;100810.31;;;10.56;100.00
52949;BME280;38812;50.942;3.644;2023-04-24T08:53:42;100820.94;;;10.51;100.00
52949;BME280;38812;50.942;3.644;2023-04-24T08:56:08;100823.69;;;11.58;100.00
52949;BME280;38812;50.942;3.644;2023-04-24T08:58:35;100807.22;;;11.14;100.00
52949;BME280;38812;50.942;3.644;2023-04-24T09:01:01;100815.16;;;11.13;100.00
52949;BME280;38812;50.942;3.644;2023-04-24T09:03:28;100825.75;;;10.71;100.00
52949;BME280;38812;50.942;3.644;2023-04-24T09:05:55;100813.16;;;10.45;100.00
52949;BME280;38812;50.942;3.644;2023-04-24T09:08:24;100811.06;;;10.19;100.00
52949;BME280;38812;50.942;3.644;2023-04-24T09:10:50;100836.94;;;10.39;100.00
52949;BME280;38812;50.942;3.644;2023-04-24T09:13:15;100840.50;;;10.37;100.00
52949;BME280;38812;50.942;3.644;2023-04-24T09:15:42;100846.16;;;10.60;100.00
52949;BME280;38812;50.942;3.644;2023-04-24T09:18:07;100831.09;;;10.67;100.00
52949;BME280;38812;50.942;3.644;2023-04-24T09:20:33;100848.84;;;10.57;100.00
52949;BME280;38812;50.942;3.644;2023-04-24T09:23:00;100849.84;;;10.50;100.00
52949;BME280;38812;50.942;3.644;2023-04-24T09:25:33;100851.56;;;10.52;100.00
52949;BME280;38812;50.942;3.644;2023-04-24T09:28:01;100854.22;;;10.91;100.00
52949;BME280;38812;50.942;3.644;2023-04-24T09:30:28;100852.09;;;11.07;100.00
52949;BME280;38812;50.942;3.644;2023-04-24T09:33:13;100854.63;;;11.11;100.00
52949;BME280;38812;50.942;3.644;2023-04-24T09:35:49;100846.19;;;11.34;100.00
52949;BME280;38812;50.942;3.644;2023-04-24T09:38:15;100855.97;;;11.27;100.00
52949;BME280;38812;50.942;3.644;2023-04-24T09:40:40;100851.22;;;11.45;100.00
52949;BME280;38812;50.942;3.644;2023-04-24T09:43:10;100837.22;;;11.78;100.00
52949;BME280;38812;50.942;3.644;2023-04-24T09:45:37;100844.53;;;11.99;100.00
52949;BME280;38812;50.942;3.644;2023-04-24T09:48:03;100857.22;;;12.18;100.00
52949;BME280;38812;50.942;3.644;2023-04-24T09:50:30;100858.13;;;12.17;100.00
52949;BME280;38812;50.942;3.644;2023-04-24T09:53:03;100876.13;;;11.99;100.00
52949;BME280;38812;50.942;3.644;2023-04-24T09:55:28;100844.28;;;11.76;100.00
52949;BME280;38812;50.942;3.644;2023-04-24T09:57:57;100870.09;;;12.28;100.00
52949;BME280;38812;50.942;3.644;2023-04-24T10:00:31;100863.25;;;11.90;100.00
52949;BME280;38812;50.942;3.644;2023-04-24T10:03:04;100864.19;;;11.51;100.00
52949;BME280;38812;50.942;3.644;2023-04-24T10:05:35;100878.41;;;11.44;100.00
52949;BME280;38812;50.942;3.644;2023-04-24T10:10:26;100882.28;;;11.27;100.00
52949;BME280;38812;50.942;3.644;2023-04-24T10:12:52;100878.34;;;11.47;100.00
52949;BME280;38812;50.942;3.644;2023-04-24T10:15:18;100881.25;;;11.34;100.00
52949;BME280;38812;50.942;3.644;2023-04-24T10:17:48;100888.75;;;11.14;100.00
52949;BME280;38812;50.942;3.644;2023-04-24T10:20:23;100886.53;;;10.96;100.00
52949;BME280;38812;50.942;3.644;2023-04-24T10:22:52;100890.78;;;11.02;100.00
52949;BME280;38812;50.942;3.644;2023-04-24T10:25:22;100887.78;;;11.18;100.00
52949;BME280;38812;50.942;3.644;2023-04-24T10:27:49;100883.75;;;11.41;100.00
52949;BME280;38812;50.942;3.644;2023-04-24T10:30:15;100908.19;;;11.46;100.00
52949;BME280;38812;50.942;3.644;2023-04-24T10:32:40;100904.81;;;11.76;100.00
52949;BME280;38812;50.942;3.644;2023-04-24T10:35:06;100894.84;;;11.90;100.00
52949;BME280;38812;50.942;3.644;2023-04-24T10:37:43;100904.28;;;11.97;100.00
52949;BME280;38812;50.942;3.644;2023-04-24T10:40:10;100915.16;;;12.18;100.00
52949;BME280;38812;50.942;3.644;2023-04-24T10:42:39;100910.28;;;12.02;100.00
52949;BME280;38812;50.942;3.644;2023-04-24T10:45:06;100912.81;;;11.70;100.00
52949;BME280;38812;50.942;3.644;2023-04-24T10:47:41;100912.50;;;11.85;100.00
52949;BME280;38812;50.942;3.644;2023-04-24T10:50:10;100913.28;;;11.89;100.00
52949;BME280;38812;50.942;3.644;2023-04-24T10:52:45;100913.28;;;11.89;100.00
52949;BME280;38812;50.942;3.644;2023-04-24T10:55:13;100936.03;;;11.91;100.00
52949;BME280;38812;50.942;3.644;2023-04-24T10:57:39;100922.00;;;11.54;100.00
52949;BME280;38812;50.942;3.644;2023-04-24T11:00:16;100918.78;;;11.43;100.00
52949;BME280;38812;50.942;3.644;2023-04-24T11:02:42;100922.91;;;11.90;100.00
52949;BME280;38812;50.942;3.644;2023-04-24T11:05:15;100925.31;;;11.99;100.00
52949;BME280;38812;50.942;3.644;2023-04-24T11:08:16;100925.38;;;12.30;100.00
52949;BME280;38812;50.942;3.644;2023-04-24T11:10:47;100929.63;;;12.66;100.00
52949;BME280;38812;50.942;3.644;2023-04-24T11:13:21;100944.22;;;12.78;100.00
52949;BME280;38812;50.942;3.644;2023-04-24T11:19:09;100943.41;;;12.45;100.00
52949;BME280;38812;50.942;3.644;2023-04-24T11:29:38;100937.41;;;13.31;100.00
52949;BME280;38812;50.942;3.644;2023-04-24T11:32:17;100937.28;;;13.05;100.00
52949;BME280;38812;50.942;3.644;2023-04-24T11:34:48;100934.81;;;12.69;100.00
52949;BME280;38812;50.942;3.644;2023-04-24T11:37:14;100941.91;;;12.67;100.00
52949;BME280;38812;50.942;3.644;2023-04-24T11:39:40;100953.41;;;12.32;100.00
52949;BME280;38812;50.942;3.644;2023-04-24T11:42:06;100945.09;;;12.48;100.00
52949;BME280;38812;50.942;3.644;2023-04-24T11:44:33;100944.16;;;12.50;100.00
52949;BME280;38812;50.942;3.644;2023-04-24T11:46:59;100951.16;;;12.17;100.00
52949;BME280;38812;50.942;3.644;2023-04-24T11:49:25;100967.09;;;11.77;100.00
52949;BME280;38812;50.942;3.644;2023-04-24T11:51:55;100936.00;;;12.27;100.00
52949;BME280;38812;50.942;3.644;2023-04-24T11:54:20;100936.94;;;13.73;100.00
52949;BME280;38812;50.942;3.644;2023-04-24T11:56:47;100942.00;;;13.81;100.00
52949;BME280;38812;50.942;3.644;2023-04-24T11:59:12;100943.75;;;13.80;100.00
52949;BME280;38812;50.942;3.644;2023-04-24T12:01:48;100941.34;;;14.25;100.00
52949;BME280;38812;50.942;3.644;2023-04-24T12:04:16;100941.66;;;14.16;100.00
52949;BME280;38812;50.942;3.644;2023-04-24T12:07:03;100954.00;;;13.89;100.00
52949;BME280;38812;50.942;3.644;2023-04-24T12:09:55;100956.47;;;13.10;100.00
52949;BME280;38812;50.942;3.644;2023-04-24T12:12:24;100959.94;;;12.81;100.00
52949;BME280;38812;50.942;3.644;2023-04-24T12:14:55;100953.88;;;13.66;100.00
52949;BME280;38812;50.942;3.644;2023-04-24T12:17:29;100955.16;;;13.82;100.00
52949;BME280;38812;50.942;3.644;2023-04-24T12:20:00;100954.94;;;14.41;100.00
52949;BME280;38812;50.942;3.644;2023-04-24T12:22:26;100941.50;;;14.47;100.00
52949;BME280;38812;50.942;3.644;2023-04-24T12:25:02;100940.91;;;13.60;100.00
52949;BME280;38812;50.942;3.644;2023-04-24T12:27:30;100955.81;;;12.73;100.00
52949;BME280;38812;50.942;3.644;2023-04-24T12:29:58;100943.66;;;13.27;100.00
52949;BME280;38812;50.942;3.644;2023-04-24T12:32:24;100958.97;;;13.16;100.00
52949;BME280;38812;50.942;3.644;2023-04-24T12:34:54;100939.09;;;13.62;100.00
52949;BME280;38812;50.942;3.644;2023-04-24T12:37:20;100939.19;;;13.59;100.00
52949;BME280;38812;50.942;3.644;2023-04-24T12:42:34;100949.47;;;13.66;100.00
52949;BME280;38812;50.942;3.644;2023-04-24T12:45:06;100947.03;;;13.32;100.00
52949;BME280;38812;50.942;3.644;2023-04-24T12:47:32;100954.22;;;13.27;100.00
52949;BME280;38812;50.942;3.644;2023-04-24T12:49:59;100958.72;;;13.53;100.00
52949;BME280;38812;50.942;3.644;2023-04-24T12:52:26;100946.84;;;13.66;100.00
52949;BME280;38812;50.942;3.644;2023-04-24T12:54:53;100950.00;;;13.50;100.00
52949;BME280;38812;50.942;3.644;2023-04-24T12:57:20;100948.31;;;13.75;100.00
52949;BME280;38812;50.942;3.644;2023-04-24T12:59:45;100946.88;;;13.65;100.00